EZY96XD EGBB-LPFR
Flight info
| Callsign | EZY96XD |
|---|---|
| Flight time | N/A |
| Altitude | 36000 |
| Route | ADMEX Y321 PEPIS Q41 SAM M195 LORKU DCT BALDA DCT ABUPI DCT DIGAL DCT ALAGU |
| Aircraft | A320/M-SDE2E3FGHIJ1RWXYZ/LB1 |
Departure
| Time | 2026-05-04 14:22 |
|---|---|
| Airport | Birmingham Airport (EGBB) |
Arrival
| Time | N/A |
|---|---|
| Airport | Faro - Gago Coutinho International Airport (LPFR) |
| Time | Latitude | Longitude | Altitude | Speed | Heading |
|---|---|---|---|---|---|
| 2026-05-04 14:06 | 52.45344 | -1.73697 | 323 ft | 0 kts | 146° |
| 2026-05-04 14:14 | 52.45360 | -1.73714 | 322 ft | 2 kts | 146° |
| 2026-05-04 14:14 | 52.45380 | -1.73733 | 321 ft | 4 kts | 161° |
| 2026-05-04 14:15 | 52.45418 | -1.73724 | 323 ft | 0 kts | 236° |
| 2026-05-04 14:15 | 52.45407 | -1.73751 | 321 ft | 0 kts | 236° |
| 2026-05-04 14:17 | 52.45397 | -1.73774 | 321 ft | 7 kts | 236° |
| 2026-05-04 14:18 | 52.45369 | -1.73843 | 323 ft | 7 kts | 236° |
| 2026-05-04 14:18 | 52.45259 | -1.73953 | 323 ft | 11 kts | 148° |
| 2026-05-04 14:19 | 52.45101 | -1.73780 | 323 ft | 20 kts | 148° |
| 2026-05-04 14:19 | 52.44986 | -1.73692 | 323 ft | 17 kts | 145° |
| 2026-05-04 14:19 | 52.44888 | -1.73655 | 322 ft | 14 kts | 199° |
| 2026-05-04 14:19 | 52.44798 | -1.73699 | 322 ft | 13 kts | 197° |
| 2026-05-04 14:20 | 52.44727 | -1.73753 | 324 ft | 10 kts | 229° |
| 2026-05-04 14:20 | 52.44695 | -1.73834 | 325 ft | 8 kts | 238° |
| 2026-05-04 14:20 | 52.44650 | -1.73947 | 322 ft | 15 kts | 239° |
| 2026-05-04 14:21 | 52.44681 | -1.74011 | 323 ft | 23 kts | 325° |
| 2026-05-04 14:21 | 52.45039 | -1.74408 | 329 ft | 97 kts | 326° |
| 2026-05-04 14:21 | 52.45765 | -1.75217 | 321 ft | 152 kts | 325° |
| 2026-05-04 14:21 | 52.46364 | -1.75907 | 630 ft | 156 kts | 327° |
| 2026-05-04 14:22 | 52.47255 | -1.76924 | 1400 ft | 156 kts | 328° |
| 2026-05-04 14:22 | 52.48155 | -1.77944 | 1935 ft | 164 kts | 327° |
| 2026-05-04 14:22 | 52.49143 | -1.79061 | 2314 ft | 180 kts | 326° |
| 2026-05-04 14:22 | 52.50260 | -1.80157 | 2587 ft | 200 kts | 342° |
| 2026-05-04 14:23 | 52.53036 | -1.78943 | 3534 ft | 227 kts | 49° |
| 2026-05-04 14:23 | 52.53751 | -1.76595 | 4260 ft | 233 kts | 78° |
| 2026-05-04 14:23 | 52.53855 | -1.73954 | 4958 ft | 239 kts | 98° |
| 2026-05-04 14:24 | 52.53510 | -1.71258 | 5674 ft | 243 kts | 103° |
| 2026-05-04 14:24 | 52.53112 | -1.68541 | 6434 ft | 246 kts | 110° |
| 2026-05-04 14:24 | 52.52268 | -1.66079 | 6981 ft | 257 kts | 134° |
| 2026-05-04 14:24 | 52.50952 | -1.63920 | 7373 ft | 275 kts | 137° |
| 2026-05-04 14:25 | 52.49567 | -1.61704 | 8111 ft | 281 kts | 137° |
| 2026-05-04 14:25 | 52.46741 | -1.57158 | 9724 ft | 288 kts | 137° |
| 2026-05-04 14:25 | 52.45143 | -1.55160 | 10360 ft | 295 kts | 149° |
| 2026-05-04 14:26 | 52.43300 | -1.53316 | 10584 ft | 318 kts | 150° |
| 2026-05-04 14:26 | 52.41353 | -1.51405 | 11031 ft | 331 kts | 150° |
| 2026-05-04 14:26 | 52.39362 | -1.49458 | 11704 ft | 336 kts | 150° |
| 2026-05-04 14:26 | 52.37365 | -1.47527 | 12399 ft | 339 kts | 153° |
| 2026-05-04 14:27 | 52.35146 | -1.46053 | 13081 ft | 341 kts | 166° |
| 2026-05-04 14:27 | 52.32809 | -1.45294 | 13777 ft | 344 kts | 172° |
| 2026-05-04 14:27 | 52.30445 | -1.44634 | 14399 ft | 347 kts | 171° |
| 2026-05-04 14:27 | 52.28057 | -1.43963 | 15013 ft | 350 kts | 171° |
| 2026-05-04 14:28 | 52.25654 | -1.43283 | 15670 ft | 351 kts | 171° |
| 2026-05-04 14:28 | 52.23242 | -1.42600 | 16316 ft | 353 kts | 171° |
| 2026-05-04 14:28 | 52.20811 | -1.41909 | 16953 ft | 356 kts | 171° |
| 2026-05-04 14:28 | 52.18364 | -1.41210 | 17576 ft | 358 kts | 171° |
| 2026-05-04 14:29 | 52.13416 | -1.39811 | 18729 ft | 364 kts | 171° |
| 2026-05-04 14:29 | 52.08392 | -1.38399 | 19756 ft | 369 kts | 171° |
| 2026-05-04 14:30 | 52.05850 | -1.37687 | 20259 ft | 372 kts | 171° |
| 2026-05-04 14:30 | 52.03294 | -1.36970 | 20754 ft | 374 kts | 171° |
| 2026-05-04 14:30 | 51.98139 | -1.35529 | 21756 ft | 378 kts | 171° |
| 2026-05-04 14:31 | 51.95533 | -1.34800 | 22224 ft | 381 kts | 171° |
| 2026-05-04 14:31 | 51.90274 | -1.33325 | 23170 ft | 387 kts | 171° |
| 2026-05-04 14:32 | 51.84940 | -1.31840 | 23999 ft | 392 kts | 171° |
| 2026-05-04 14:32 | 51.82245 | -1.31094 | 24385 ft | 394 kts | 171° |
| 2026-05-04 14:32 | 51.79534 | -1.30342 | 24785 ft | 396 kts | 171° |
| 2026-05-04 14:32 | 51.76821 | -1.29586 | 25213 ft | 396 kts | 171° |
| 2026-05-04 14:33 | 51.74101 | -1.28829 | 25600 ft | 397 kts | 172° |
| 2026-05-04 14:33 | 51.71374 | -1.28074 | 25987 ft | 398 kts | 172° |
| 2026-05-04 14:33 | 51.68637 | -1.27321 | 26345 ft | 400 kts | 172° |
| 2026-05-04 14:33 | 51.65888 | -1.26568 | 26720 ft | 401 kts | 172° |
| 2026-05-04 14:34 | 51.63135 | -1.25816 | 27086 ft | 403 kts | 172° |
| 2026-05-04 14:34 | 51.60364 | -1.25056 | 27442 ft | 404 kts | 172° |
| 2026-05-04 14:34 | 51.57591 | -1.24289 | 27801 ft | 406 kts | 172° |
| 2026-05-04 14:34 | 51.54806 | -1.23519 | 28199 ft | 406 kts | 172° |
| 2026-05-04 14:35 | 51.52021 | -1.22750 | 28599 ft | 406 kts | 172° |
| 2026-05-04 14:35 | 51.49222 | -1.22134 | 28967 ft | 406 kts | 178° |
| 2026-05-04 14:35 | 51.46397 | -1.22185 | 29322 ft | 407 kts | 184° |
| 2026-05-04 14:35 | 51.43564 | -1.22430 | 29643 ft | 408 kts | 184° |
| 2026-05-04 14:36 | 51.40723 | -1.22670 | 29965 ft | 409 kts | 184° |
| 2026-05-04 14:36 | 51.37875 | -1.22903 | 30248 ft | 411 kts | 184° |
| 2026-05-04 14:36 | 51.35017 | -1.23133 | 30480 ft | 413 kts | 184° |
| 2026-05-04 14:36 | 51.32142 | -1.23362 | 30688 ft | 414 kts | 184° |
| 2026-05-04 14:37 | 51.29264 | -1.23591 | 30985 ft | 415 kts | 184° |
| 2026-05-04 14:37 | 51.26347 | -1.23825 | 31311 ft | 414 kts | 183° |
| 2026-05-04 14:37 | 51.23507 | -1.24052 | 31620 ft | 414 kts | 183° |
| 2026-05-04 14:37 | 51.20597 | -1.24321 | 31912 ft | 414 kts | 186° |
| 2026-05-04 14:38 | 51.17763 | -1.25144 | 32196 ft | 414 kts | 194° |
| 2026-05-04 14:38 | 51.14980 | -1.26330 | 32475 ft | 415 kts | 194° |
| 2026-05-04 14:38 | 51.12191 | -1.27514 | 32751 ft | 415 kts | 194° |
| 2026-05-04 14:38 | 51.09398 | -1.28694 | 33034 ft | 416 kts | 194° |
| 2026-05-04 14:39 | 51.06599 | -1.29872 | 33325 ft | 416 kts | 194° |
| 2026-05-04 14:39 | 51.03801 | -1.31043 | 33611 ft | 416 kts | 194° |
| 2026-05-04 14:39 | 51.00994 | -1.32212 | 33898 ft | 417 kts | 194° |
| 2026-05-04 14:40 | 50.95456 | -1.34941 | 34410 ft | 419 kts | 204° |
| 2026-05-04 14:40 | 50.92912 | -1.37195 | 34617 ft | 421 kts | 212° |
| 2026-05-04 14:40 | 50.90473 | -1.39768 | 34814 ft | 421 kts | 212° |
| 2026-05-04 14:40 | 50.88029 | -1.42336 | 34995 ft | 423 kts | 212° |
| 2026-05-04 14:41 | 50.85566 | -1.44907 | 35118 ft | 425 kts | 212° |
| 2026-05-04 14:41 | 50.83087 | -1.47480 | 35309 ft | 426 kts | 212° |
| 2026-05-04 14:41 | 50.78117 | -1.52610 | 35702 ft | 427 kts | 212° |
| 2026-05-04 14:42 | 50.73140 | -1.57744 | 35989 ft | 427 kts | 212° |
| 2026-05-04 14:42 | 50.68189 | -1.62850 | 36005 ft | 424 kts | 212° |
| 2026-05-04 14:43 | 50.63251 | -1.67937 | 36012 ft | 424 kts | 212° |
| 2026-05-04 14:43 | 50.58313 | -1.73002 | 36011 ft | 423 kts | 212° |
| 2026-05-04 14:44 | 50.53386 | -1.78057 | 36010 ft | 423 kts | 212° |
| 2026-05-04 14:44 | 50.48453 | -1.83099 | 36012 ft | 423 kts | 212° |
| 2026-05-04 14:45 | 50.43509 | -1.88118 | 36020 ft | 423 kts | 212° |
| 2026-05-04 14:45 | 50.38560 | -1.93140 | 36019 ft | 424 kts | 212° |
| 2026-05-04 14:46 | 50.33620 | -1.98156 | 36019 ft | 423 kts | 212° |
| 2026-05-04 14:46 | 50.28672 | -2.03162 | 36019 ft | 423 kts | 212° |
| 2026-05-04 14:47 | 50.23725 | -2.08141 | 36017 ft | 423 kts | 211° |
| 2026-05-04 14:47 | 50.18710 | -2.13062 | 36011 ft | 431 kts | 211° |